sensor_id;sensor_type;location;lat;lon;timestamp;pressure;altitude;pressure_sealevel;temperature;humidity
31771;BME280;18343;50.152;8.182;2023-03-04T00:00:25;98127.53;;;2.00;78.95
31771;BME280;18343;50.152;8.182;2023-03-04T00:03:10;98128.72;;;1.96;78.59
31771;BME280;18343;50.152;8.182;2023-03-04T00:05:55;98134.03;;;1.96;79.01
31771;BME280;18343;50.152;8.182;2023-03-04T00:08:40;98136.94;;;1.93;78.42
31771;BME280;18343;50.152;8.182;2023-03-04T00:11:24;98134.56;;;1.90;79.17
31771;BME280;18343;50.152;8.182;2023-03-04T00:14:09;98141.53;;;1.91;79.54
31771;BME280;18343;50.152;8.182;2023-03-04T00:16:55;98138.06;;;1.90;78.80
31771;BME280;18343;50.152;8.182;2023-03-04T00:19:40;98134.06;;;1.85;79.26
31771;BME280;18343;50.152;8.182;2023-03-04T00:22:24;98133.22;;;1.84;79.62
31771;BME280;18343;50.152;8.182;2023-03-04T00:25:09;98137.69;;;1.84;79.84
31771;BME280;18343;50.152;8.182;2023-03-04T00:27:54;98139.38;;;1.85;80.11
31771;BME280;18343;50.152;8.182;2023-03-04T00:30:39;98128.66;;;1.86;80.01
31771;BME280;18343;50.152;8.182;2023-03-04T00:33:25;98124.66;;;1.81;79.19
31771;BME280;18343;50.152;8.182;2023-03-04T00:36:10;98125.88;;;1.77;79.54
31771;BME280;18343;50.152;8.182;2023-03-04T00:38:55;98126.09;;;1.74;79.54
31771;BME280;18343;50.152;8.182;2023-03-04T00:41:40;98124.66;;;1.69;79.06
31771;BME280;18343;50.152;8.182;2023-03-04T00:44:24;98123.47;;;1.62;79.71
31771;BME280;18343;50.152;8.182;2023-03-04T00:47:09;98131.53;;;1.61;80.37
31771;BME280;18343;50.152;8.182;2023-03-04T00:49:55;98135.03;;;1.61;80.73
31771;BME280;18343;50.152;8.182;2023-03-04T00:52:41;98131.41;;;1.62;80.57
31771;BME280;18343;50.152;8.182;2023-03-04T00:55:27;98133.09;;;1.63;80.88
31771;BME280;18343;50.152;8.182;2023-03-04T00:58:11;98128.50;;;1.65;81.07
31771;BME280;18343;50.152;8.182;2023-03-04T01:00:56;98120.31;;;1.68;80.96
31771;BME280;18343;50.152;8.182;2023-03-04T01:03:41;98125.25;;;1.73;81.80
31771;BME280;18343;50.152;8.182;2023-03-04T01:06:27;98118.63;;;1.79;82.16
31771;BME280;18343;50.152;8.182;2023-03-04T01:09:12;98118.16;;;1.85;82.07
31771;BME280;18343;50.152;8.182;2023-03-04T01:11:56;98117.69;;;1.91;82.21
31771;BME280;18343;50.152;8.182;2023-03-04T01:14:41;98115.59;;;1.94;82.19
31771;BME280;18343;50.152;8.182;2023-03-04T01:17:26;98110.06;;;1.97;82.50
31771;BME280;18343;50.152;8.182;2023-03-04T01:20:12;98108.25;;;1.98;82.64
31771;BME280;18343;50.152;8.182;2023-03-04T01:22:58;98108.97;;;2.00;82.79
31771;BME280;18343;50.152;8.182;2023-03-04T01:25:42;98101.72;;;2.02;82.66
31771;BME280;18343;50.152;8.182;2023-03-04T01:28:27;98095.47;;;2.03;82.83
31771;BME280;18343;50.152;8.182;2023-03-04T01:31:11;98101.38;;;2.07;83.58
31771;BME280;18343;50.152;8.182;2023-03-04T01:33:56;98085.31;;;2.08;83.32
31771;BME280;18343;50.152;8.182;2023-03-04T01:36:41;98085.31;;;2.08;83.15
31771;BME280;18343;50.152;8.182;2023-03-04T01:39:26;98087.72;;;2.11;83.94
31771;BME280;18343;50.152;8.182;2023-03-04T01:42:17;98077.84;;;2.13;83.75
31771;BME280;18343;50.152;8.182;2023-03-04T01:45:04;98078.69;;;2.14;84.08
31771;BME280;18343;50.152;8.182;2023-03-04T01:47:51;98070.19;;;2.20;84.35
31771;BME280;18343;50.152;8.182;2023-03-04T01:50:36;98071.75;;;2.22;84.14
31771;BME280;18343;50.152;8.182;2023-03-04T01:53:23;98064.53;;;2.24;84.33
31771;BME280;18343;50.152;8.182;2023-03-04T01:56:17;98059.94;;;2.26;84.44
31771;BME280;18343;50.152;8.182;2023-03-04T01:59:12;98051.00;;;2.27;84.23
31771;BME280;18343;50.152;8.182;2023-03-04T02:01:59;98058.13;;;2.27;84.28
31771;BME280;18343;50.152;8.182;2023-03-04T02:04:44;98051.72;;;2.29;84.57
31771;BME280;18343;50.152;8.182;2023-03-04T02:07:28;98054.25;;;2.31;84.63
31771;BME280;18343;50.152;8.182;2023-03-04T02:10:13;98049.66;;;2.33;84.98
31771;BME280;18343;50.152;8.182;2023-03-04T02:13:00;98039.78;;;2.35;84.96
31771;BME280;18343;50.152;8.182;2023-03-04T02:15:46;98037.00;;;2.36;85.24
31771;BME280;18343;50.152;8.182;2023-03-04T02:18:30;98044.13;;;2.36;84.87
31771;BME280;18343;50.152;8.182;2023-03-04T02:21:21;98029.16;;;2.35;84.63
31771;BME280;18343;50.152;8.182;2023-03-04T02:24:14;98029.28;;;2.33;85.42
31771;BME280;18343;50.152;8.182;2023-03-04T02:27:02;98026.38;;;2.36;85.87
31771;BME280;18343;50.152;8.182;2023-03-04T02:29:47;98028.66;;;2.41;86.21
31771;BME280;18343;50.152;8.182;2023-03-04T02:32:33;98025.88;;;2.43;86.41
31771;BME280;18343;50.152;8.182;2023-03-04T02:35:19;98022.25;;;2.44;86.53
31771;BME280;18343;50.152;8.182;2023-03-04T02:38:04;98029.25;;;2.45;86.85
31771;BME280;18343;50.152;8.182;2023-03-04T02:40:51;98020.56;;;2.43;86.39
31771;BME280;18343;50.152;8.182;2023-03-04T02:43:41;98022.63;;;2.39;86.32
31771;BME280;18343;50.152;8.182;2023-03-04T02:46:27;98019.13;;;2.38;86.26
31771;BME280;18343;50.152;8.182;2023-03-04T02:49:12;98018.88;;;2.42;87.08
31771;BME280;18343;50.152;8.182;2023-03-04T02:52:03;98025.34;;;2.49;87.31
31771;BME280;18343;50.152;8.182;2023-03-04T02:54:48;98016.53;;;2.48;87.36
31771;BME280;18343;50.152;8.182;2023-03-04T02:57:32;98017.72;;;2.55;87.73
31771;BME280;18343;50.152;8.182;2023-03-04T03:00:19;98018.31;;;2.59;88.33
31771;BME280;18343;50.152;8.182;2023-03-04T03:03:04;98008.28;;;2.62;88.39
31771;BME280;18343;50.152;8.182;2023-03-04T03:05:51;98013.19;;;2.67;88.27
31771;BME280;18343;50.152;8.182;2023-03-04T03:08:37;98018.97;;;2.72;88.26
31771;BME280;18343;50.152;8.182;2023-03-04T03:11:22;98013.38;;;2.75;88.26
31771;BME280;18343;50.152;8.182;2023-03-04T03:14:07;98009.03;;;2.74;88.08
31771;BME280;18343;50.152;8.182;2023-03-04T03:16:53;98013.38;;;2.75;88.43
31771;BME280;18343;50.152;8.182;2023-03-04T03:19:38;98008.19;;;2.73;88.66
31771;BME280;18343;50.152;8.182;2023-03-04T03:22:23;98007.22;;;2.75;88.80
31771;BME280;18343;50.152;8.182;2023-03-04T03:25:10;98001.78;;;2.76;89.11
31771;BME280;18343;50.152;8.182;2023-03-04T03:27:55;98006.47;;;2.63;90.77
31771;BME280;18343;50.152;8.182;2023-03-04T03:30:39;98008.03;;;2.65;90.73
31771;BME280;18343;50.152;8.182;2023-03-04T03:33:26;98003.72;;;2.74;90.22
31771;BME280;18343;50.152;8.182;2023-03-04T03:36:11;98003.22;;;2.80;90.22
31771;BME280;18343;50.152;8.182;2023-03-04T03:38:56;98002.94;;;2.83;90.27
31771;BME280;18343;50.152;8.182;2023-03-04T03:41:41;97998.47;;;2.84;90.13
31771;BME280;18343;50.152;8.182;2023-03-04T03:44:25;98000.16;;;2.85;89.69
31771;BME280;18343;50.152;8.182;2023-03-04T03:47:10;97995.44;;;2.88;90.37
31771;BME280;18343;50.152;8.182;2023-03-04T03:49:55;97993.50;;;2.90;89.72
31771;BME280;18343;50.152;8.182;2023-03-04T03:52:40;97988.19;;;2.90;89.79
31771;BME280;18343;50.152;8.182;2023-03-04T03:55:25;97990.25;;;2.87;90.68
31771;BME280;18343;50.152;8.182;2023-03-04T03:58:10;97992.41;;;2.72;92.09
31771;BME280;18343;50.152;8.182;2023-03-04T04:00:55;97993.44;;;2.81;90.80
31771;BME280;18343;50.152;8.182;2023-03-04T04:03:39;97992.06;;;2.86;90.70
31771;BME280;18343;50.152;8.182;2023-03-04T04:06:25;97989.66;;;2.83;90.56
31771;BME280;18343;50.152;8.182;2023-03-04T04:09:13;97990.13;;;2.88;90.90
31771;BME280;18343;50.152;8.182;2023-03-04T04:11:58;97997.38;;;2.86;90.93
31771;BME280;18343;50.152;8.182;2023-03-04T04:14:42;97979.75;;;2.85;91.11
31771;BME280;18343;50.152;8.182;2023-03-04T04:17:27;97981.44;;;2.86;91.28
31771;BME280;18343;50.152;8.182;2023-03-04T04:20:12;97980.84;;;2.83;91.67
31771;BME280;18343;50.152;8.182;2023-03-04T04:22:57;97989.28;;;2.88;91.80
31771;BME280;18343;50.152;8.182;2023-03-04T04:25:42;97983.59;;;2.92;91.59
31771;BME280;18343;50.152;8.182;2023-03-04T04:28:26;97985.66;;;2.89;91.89
31771;BME280;18343;50.152;8.182;2023-03-04T04:31:12;97988.69;;;2.84;93.27
31771;BME280;18343;50.152;8.182;2023-03-04T04:33:56;97985.66;;;2.89;92.22
31771;BME280;18343;50.152;8.182;2023-03-04T04:36:41;97984.34;;;2.83;93.07
31771;BME280;18343;50.152;8.182;2023-03-04T04:39:26;97979.03;;;2.83;92.80
31771;BME280;18343;50.152;8.182;2023-03-04T04:42:11;97982.88;;;2.90;92.36
31771;BME280;18343;50.152;8.182;2023-03-04T04:44:56;97986.09;;;2.94;92.51
31771;BME280;18343;50.152;8.182;2023-03-04T04:47:41;97980.94;;;2.92;92.77
31771;BME280;18343;50.152;8.182;2023-03-04T04:50:26;97975.63;;;2.92;92.95
31771;BME280;18343;50.152;8.182;2023-03-04T04:53:11;97984.88;;;2.98;92.28
31771;BME280;18343;50.152;8.182;2023-03-04T04:55:58;97979.69;;;2.96;92.57
31771;BME280;18343;50.152;8.182;2023-03-04T04:58:44;97981.69;;;2.83;93.51
31771;BME280;18343;50.152;8.182;2023-03-04T05:01:29;97974.91;;;2.90;93.54
31771;BME280;18343;50.152;8.182;2023-03-04T05:04:14;97973.41;;;2.97;93.26
31771;BME280;18343;50.152;8.182;2023-03-04T05:06:59;97970.88;;;2.96;92.89
31771;BME280;18343;50.152;8.182;2023-03-04T05:09:44;97975.22;;;2.97;92.58
31771;BME280;18343;50.152;8.182;2023-03-04T05:12:30;97971.47;;;2.99;92.62
31771;BME280;18343;50.152;8.182;2023-03-04T05:15:14;97971.47;;;2.99;93.03
31771;BME280;18343;50.152;8.182;2023-03-04T05:17:59;97978.47;;;3.00;92.87
31771;BME280;18343;50.152;8.182;2023-03-04T05:20:44;97978.84;;;2.96;93.50
31771;BME280;18343;50.152;8.182;2023-03-04T05:23:31;97975.63;;;3.02;93.10
31771;BME280;18343;50.152;8.182;2023-03-04T05:26:17;97977.19;;;3.04;93.08
31771;BME280;18343;50.152;8.182;2023-03-04T05:29:03;97975.25;;;3.06;93.33
31771;BME280;18343;50.152;8.182;2023-03-04T05:31:48;97974.41;;;3.06;93.46
31771;BME280;18343;50.152;8.182;2023-03-04T05:34:32;97977.91;;;3.06;93.87
31771;BME280;18343;50.152;8.182;2023-03-04T05:37:19;97974.00;;;3.11;93.00
31771;BME280;18343;50.152;8.182;2023-03-04T05:40:05;97979.72;;;3.06;93.98
31771;BME280;18343;50.152;8.182;2023-03-04T05:42:50;97980.16;;;3.11;93.38
31771;BME280;18343;50.152;8.182;2023-03-04T05:45:36;97982.63;;;3.03;93.99
31771;BME280;18343;50.152;8.182;2023-03-04T05:48:22;97983.44;;;2.94;94.76
31771;BME280;18343;50.152;8.182;2023-03-04T05:51:07;97973.81;;;3.02;94.07
31771;BME280;18343;50.152;8.182;2023-03-04T05:53:52;97974.78;;;3.01;94.32
31771;BME280;18343;50.152;8.182;2023-03-04T05:56:37;97976.31;;;2.94;94.62
31771;BME280;18343;50.152;8.182;2023-03-04T05:59:21;97975.34;;;2.95;94.34
31771;BME280;18343;50.152;8.182;2023-03-04T06:02:10;97972.44;;;2.98;94.55
31771;BME280;18343;50.152;8.182;2023-03-04T06:04:54;97981.38;;;2.97;94.87
31771;BME280;18343;50.152;8.182;2023-03-04T06:07:39;97981.25;;;2.99;94.37
31771;BME280;18343;50.152;8.182;2023-03-04T06:10:24;97986.00;;;3.05;94.52
31771;BME280;18343;50.152;8.182;2023-03-04T06:13:09;97993.84;;;3.06;94.27
31771;BME280;18343;50.152;8.182;2023-03-04T06:15:55;97993.59;;;3.10;94.55
31771;BME280;18343;50.152;8.182;2023-03-04T06:18:41;97991.91;;;3.09;95.16
31771;BME280;18343;50.152;8.182;2023-03-04T06:21:26;98005.63;;;3.14;94.30
31771;BME280;18343;50.152;8.182;2023-03-04T06:24:11;98004.09;;;3.11;94.63
31771;BME280;18343;50.152;8.182;2023-03-04T06:26:56;98004.53;;;3.16;94.21
31771;BME280;18343;50.152;8.182;2023-03-04T06:29:41;97997.59;;;3.04;94.88
31771;BME280;18343;50.152;8.182;2023-03-04T06:32:26;98006.03;;;3.09;95.12
31771;BME280;18343;50.152;8.182;2023-03-04T06:35:13;98010.94;;;3.14;95.04
31771;BME280;18343;50.152;8.182;2023-03-04T06:37:58;98010.69;;;3.17;95.12
31771;BME280;18343;50.152;8.182;2023-03-04T06:40:43;98008.47;;;3.22;94.96
31771;BME280;18343;50.152;8.182;2023-03-04T06:43:28;98012.56;;;3.26;94.83
31771;BME280;18343;50.152;8.182;2023-03-04T06:46:15;98021.09;;;3.29;95.32
31771;BME280;18343;50.152;8.182;2023-03-04T06:48:59;98024.88;;;3.27;95.31
31771;BME280;18343;50.152;8.182;2023-03-04T06:51:46;98021.94;;;3.30;95.11
31771;BME280;18343;50.152;8.182;2023-03-04T06:54:31;98022.78;;;3.30;95.41
31771;BME280;18343;50.152;8.182;2023-03-04T06:57:15;98027.78;;;3.24;96.04
31771;BME280;18343;50.152;8.182;2023-03-04T07:00:00;98029.91;;;3.30;95.23
31771;BME280;18343;50.152;8.182;2023-03-04T07:02:47;98033.13;;;3.33;95.21
31771;BME280;18343;50.152;8.182;2023-03-04T07:05:32;98030.22;;;3.36;94.98
31771;BME280;18343;50.152;8.182;2023-03-04T07:08:18;98034.31;;;3.40;95.08
31771;BME280;18343;50.152;8.182;2023-03-04T07:11:04;98030.66;;;3.42;95.29
31771;BME280;18343;50.152;8.182;2023-03-04T07:13:48;98033.78;;;3.47;95.05
31771;BME280;18343;50.152;8.182;2023-03-04T07:16:33;98037.13;;;3.49;94.96
31771;BME280;18343;50.152;8.182;2023-03-04T07:19:18;98040.47;;;3.41;95.74
31771;BME280;18343;50.152;8.182;2023-03-04T07:22:02;98051.63;;;3.35;96.59
31771;BME280;18343;50.152;8.182;2023-03-04T07:24:49;98046.22;;;3.46;95.32
31771;BME280;18343;50.152;8.182;2023-03-04T07:27:34;98054.19;;;3.46;95.76
31771;BME280;18343;50.152;8.182;2023-03-04T07:30:19;98051.16;;;3.51;96.09
31771;BME280;18343;50.152;8.182;2023-03-04T07:33:03;98049.06;;;3.54;95.83
31771;BME280;18343;50.152;8.182;2023-03-04T07:35:49;98044.41;;;3.56;95.43
31771;BME280;18343;50.152;8.182;2023-03-04T07:38:43;98050.59;;;3.57;96.09
31771;BME280;18343;50.152;8.182;2023-03-04T07:41:29;98047.53;;;3.61;95.94
31771;BME280;18343;50.152;8.182;2023-03-04T07:44:15;98050.91;;;3.63;95.35
31771;BME280;18343;50.152;8.182;2023-03-04T07:46:59;98055.25;;;3.64;95.94
31771;BME280;18343;50.152;8.182;2023-03-04T07:49:44;98054.00;;;3.68;96.03
31771;BME280;18343;50.152;8.182;2023-03-04T07:52:28;98059.84;;;3.62;96.07
31771;BME280;18343;50.152;8.182;2023-03-04T07:55:16;98060.28;;;3.67;95.70
31771;BME280;18343;50.152;8.182;2023-03-04T07:58:02;98064.38;;;3.71;95.99
31771;BME280;18343;50.152;8.182;2023-03-04T08:00:48;98060.88;;;3.71;96.06
31771;BME280;18343;50.152;8.182;2023-03-04T08:03:33;98056.13;;;3.74;95.54
31771;BME280;18343;50.152;8.182;2023-03-04T08:06:19;98058.66;;;3.76;96.09
31771;BME280;18343;50.152;8.182;2023-03-04T08:09:06;98058.53;;;3.78;96.53
31771;BME280;18343;50.152;8.182;2023-03-04T08:11:52;98065.94;;;3.84;96.28
31771;BME280;18343;50.152;8.182;2023-03-04T08:14:41;98067.50;;;3.86;95.80
31771;BME280;18343;50.152;8.182;2023-03-04T08:17:26;98069.59;;;3.83;95.96
31771;BME280;18343;50.152;8.182;2023-03-04T08:20:11;98067.50;;;3.86;96.10
31771;BME280;18343;50.152;8.182;2023-03-04T08:22:56;98071.81;;;3.78;97.25
31771;BME280;18343;50.152;8.182;2023-03-04T08:26:06;98069.31;;;3.86;96.19
31771;BME280;18343;50.152;8.182;2023-03-04T08:28:52;98071.84;;;3.47;99.30
31771;BME280;18343;50.152;8.182;2023-03-04T08:31:38;98065.09;;;3.73;97.63
31771;BME280;18343;50.152;8.182;2023-03-04T08:34:26;98076.44;;;3.85;96.99
31771;BME280;18343;50.152;8.182;2023-03-04T08:37:11;98077.69;;;3.71;98.18
31771;BME280;18343;50.152;8.182;2023-03-04T08:39:56;98072.81;;;3.86;97.63
31771;BME280;18343;50.152;8.182;2023-03-04T08:42:41;98079.00;;;3.96;96.55
31771;BME280;18343;50.152;8.182;2023-03-04T08:45:26;98078.16;;;3.96;96.51
31771;BME280;18343;50.152;8.182;2023-03-04T08:48:12;98074.50;;;3.87;97.95
31771;BME280;18343;50.152;8.182;2023-03-04T08:50:57;98076.31;;;3.87;97.50
31771;BME280;18343;50.152;8.182;2023-03-04T08:53:42;98074.66;;;3.95;96.93
31771;BME280;18343;50.152;8.182;2023-03-04T08:56:27;98082.97;;;4.02;96.84
31771;BME280;18343;50.152;8.182;2023-03-04T08:59:12;98083.94;;;4.01;97.00
31771;BME280;18343;50.152;8.182;2023-03-04T09:01:57;98084.78;;;4.01;97.12
31771;BME280;18343;50.152;8.182;2023-03-04T09:04:43;98075.28;;;4.08;96.67
31771;BME280;18343;50.152;8.182;2023-03-04T09:07:28;98077.09;;;4.08;97.35
31771;BME280;18343;50.152;8.182;2023-03-04T09:10:12;98074.56;;;4.16;97.30
31771;BME280;18343;50.152;8.182;2023-03-04T09:12:58;98074.88;;;4.23;97.23
31771;BME280;18343;50.152;8.182;2023-03-04T09:15:44;98085.38;;;4.24;97.66
31771;BME280;18343;50.152;8.182;2023-03-04T09:18:29;98076.84;;;4.30;97.13
31771;BME280;18343;50.152;8.182;2023-03-04T09:21:15;98080.78;;;4.26;97.22
31771;BME280;18343;50.152;8.182;2023-03-04T09:24:00;98077.81;;;4.20;97.92
31771;BME280;18343;50.152;8.182;2023-03-04T09:26:48;98073.72;;;4.16;98.56
31771;BME280;18343;50.152;8.182;2023-03-04T09:29:32;98077.84;;;4.29;97.80
31771;BME280;18343;50.152;8.182;2023-03-04T09:32:17;98079.06;;;4.16;98.54
31771;BME280;18343;50.152;8.182;2023-03-04T09:35:03;98077.09;;;4.18;98.25
31771;BME280;18343;50.152;8.182;2023-03-04T09:37:50;98080.78;;;4.26;97.78
31771;BME280;18343;50.152;8.182;2023-03-04T09:40:40;98070.16;;;4.36;97.58
31771;BME280;18343;50.152;8.182;2023-03-04T09:43:28;98082.75;;;4.34;97.95
31771;BME280;18343;50.152;8.182;2023-03-04T09:46:17;98083.97;;;4.20;98.88
31771;BME280;18343;50.152;8.182;2023-03-04T09:49:02;98079.34;;;4.22;98.92
31771;BME280;18343;50.152;8.182;2023-03-04T09:51:58;98079.25;;;4.33;98.45
31771;BME280;18343;50.152;8.182;2023-03-04T09:55:02;98077.97;;;4.47;98.03
31771;BME280;18343;50.152;8.182;2023-03-04T09:57:55;98080.66;;;4.57;97.96
31771;BME280;18343;50.152;8.182;2023-03-04T10:00:44;98081.22;;;4.60;97.77
31771;BME280;18343;50.152;8.182;2023-03-04T10:03:40;98081.34;;;4.39;99.88
31771;BME280;18343;50.152;8.182;2023-03-04T10:06:27;98083.84;;;4.22;100.00
31771;BME280;18343;50.152;8.182;2023-03-04T10:09:15;98080.50;;;4.49;98.78
31771;BME280;18343;50.152;8.182;2023-03-04T10:12:06;98081.91;;;4.53;99.04
31771;BME280;18343;50.152;8.182;2023-03-04T10:15:00;98068.72;;;4.32;100.00
31771;BME280;18343;50.152;8.182;2023-03-04T10:17:49;98067.19;;;4.29;100.00
31771;BME280;18343;50.152;8.182;2023-03-04T10:20:49;98065.09;;;4.42;99.49
31771;BME280;18343;50.152;8.182;2023-03-04T10:23:36;98062.88;;;4.57;98.96
31771;BME280;18343;50.152;8.182;2023-03-04T10:26:21;98067.88;;;4.41;100.00
31771;BME280;18343;50.152;8.182;2023-03-04T10:29:09;98063.16;;;4.64;98.75
31771;BME280;18343;50.152;8.182;2023-03-04T10:31:57;98064.53;;;4.49;98.94
31771;BME280;18343;50.152;8.182;2023-03-04T10:34:41;98073.25;;;4.60;98.89
31771;BME280;18343;50.152;8.182;2023-03-04T10:37:44;98068.03;;;4.68;99.08
31771;BME280;18343;50.152;8.182;2023-03-04T10:40:38;98066.06;;;3.72;100.00
31771;BME280;18343;50.152;8.182;2023-03-04T10:43:24;98064.38;;;4.40;100.00
31771;BME280;18343;50.152;8.182;2023-03-04T10:46:12;98063.16;;;4.64;99.86
31771;BME280;18343;50.152;8.182;2023-03-04T10:48:58;98061.03;;;4.67;99.85
31771;BME280;18343;50.152;8.182;2023-03-04T10:52:14;98069.28;;;4.45;100.00
31771;BME280;18343;50.152;8.182;2023-03-04T10:55:05;98063.34;;;4.03;100.00
31771;BME280;18343;50.152;8.182;2023-03-04T10:58:04;98059.75;;;4.42;100.00
31771;BME280;18343;50.152;8.182;2023-03-04T11:01:01;98055.72;;;4.58;100.00
31771;BME280;18343;50.152;8.182;2023-03-04T11:03:49;98049.53;;;4.67;100.00
31771;BME280;18343;50.152;8.182;2023-03-04T11:06:40;98054.88;;;4.86;99.72
31771;BME280;18343;50.152;8.182;2023-03-04T11:09:27;98043.47;;;4.94;99.18
31771;BME280;18343;50.152;8.182;2023-03-04T11:12:15;98046.81;;;5.05;98.58
31771;BME280;18343;50.152;8.182;2023-03-04T11:15:01;98045.88;;;4.87;99.28
31771;BME280;18343;50.152;8.182;2023-03-04T11:17:49;98040.13;;;4.92;99.41
31771;BME280;18343;50.152;8.182;2023-03-04T11:20:40;98046.53;;;5.08;98.71
31771;BME280;18343;50.152;8.182;2023-03-04T11:23:33;98042.09;;;4.90;98.30
31771;BME280;18343;50.152;8.182;2023-03-04T11:26:25;98042.53;;;4.85;99.72
31771;BME280;18343;50.152;8.182;2023-03-04T11:29:15;98034.81;;;4.92;99.63
31771;BME280;18343;50.152;8.182;2023-03-04T11:32:08;98042.94;;;4.90;100.00
31771;BME280;18343;50.152;8.182;2023-03-04T11:35:01;98035.22;;;4.78;100.00
31771;BME280;18343;50.152;8.182;2023-03-04T11:37:59;98031.44;;;4.90;99.31
31771;BME280;18343;50.152;8.182;2023-03-04T11:40:51;98035.47;;;4.94;99.53
31771;BME280;18343;50.152;8.182;2023-03-04T11:43:40;98024.44;;;4.89;99.96
31771;BME280;18343;50.152;8.182;2023-03-04T11:46:56;98027.66;;;4.92;100.00
31771;BME280;18343;50.152;8.182;2023-03-04T11:50:03;98024.03;;;5.21;99.08
31771;BME280;18343;50.152;8.182;2023-03-04T11:53:39;98022.91;;;5.33;98.75
31771;BME280;18343;50.152;8.182;2023-03-04T11:56:31;98020.09;;;5.34;99.13
31771;BME280;18343;50.152;8.182;2023-03-04T11:59:47;98013.44;;;5.48;99.13
31771;BME280;18343;50.152;8.182;2023-03-04T12:02:46;98017.00;;;5.39;99.27
31771;BME280;18343;50.152;8.182;2023-03-04T12:05:42;98006.66;;;5.54;98.64
31771;BME280;18343;50.152;8.182;2023-03-04T12:11:57;98003.41;;;5.32;99.33
31771;BME280;18343;50.152;8.182;2023-03-04T12:15:00;97999.09;;;5.49;98.36
31771;BME280;18343;50.152;8.182;2023-03-04T12:18:20;97991.09;;;5.49;99.29
31771;BME280;18343;50.152;8.182;2023-03-04T12:21:29;97991.03;;;5.68;98.98
31771;BME280;18343;50.152;8.182;2023-03-04T12:24:49;97980.06;;;5.71;98.72
31771;BME280;18343;50.152;8.182;2023-03-04T12:27:43;97976.19;;;5.29;100.00
31771;BME280;18343;50.152;8.182;2023-03-04T12:30:44;97976.31;;;5.82;99.71
31771;BME280;18343;50.152;8.182;2023-03-04T12:33:47;97972.41;;;6.04;97.93
31771;BME280;18343;50.152;8.182;2023-03-04T12:36:41;97965.63;;;5.92;98.89
31771;BME280;18343;50.152;8.182;2023-03-04T12:39:36;97973.13;;;6.06;98.59
31771;BME280;18343;50.152;8.182;2023-03-04T12:42:33;97970.38;;;5.98;98.40
31771;BME280;18343;50.152;8.182;2023-03-04T12:45:30;97957.56;;;6.19;97.48
31771;BME280;18343;50.152;8.182;2023-03-04T12:48:26;97971.25;;;5.34;99.20
31771;BME280;18343;50.152;8.182;2023-03-04T12:51:26;97960.34;;;5.55;99.88
31771;BME280;18343;50.152;8.182;2023-03-04T12:54:24;97963.53;;;5.86;98.93
31771;BME280;18343;50.152;8.182;2023-03-04T12:57:15;97959.91;;;6.04;97.99
31771;BME280;18343;50.152;8.182;2023-03-04T13:00:17;97954.91;;;6.19;98.15
31771;BME280;18343;50.152;8.182;2023-03-04T13:03:11;97946.34;;;6.33;97.79
31771;BME280;18343;50.152;8.182;2023-03-04T13:06:12;97943.97;;;6.30;97.88
31771;BME280;18343;50.152;8.182;2023-03-04T13:09:04;97942.59;;;6.44;97.61
31771;BME280;18343;50.152;8.182;2023-03-04T13:12:01;97938.63;;;6.48;97.51
31771;BME280;18343;50.152;8.182;2023-03-04T13:15:26;97934.69;;;6.17;98.46
31771;BME280;18343;50.152;8.182;2023-03-04T13:18:33;97934.59;;;6.44;97.21
31771;BME280;18343;50.152;8.182;2023-03-04T13:21:23;97932.16;;;6.15;98.22
31771;BME280;18343;50.152;8.182;2023-03-04T13:24:45;97927.78;;;6.32;96.97
31771;BME280;18343;50.152;8.182;2023-03-04T13:27:47;97929.13;;;6.28;96.19
31771;BME280;18343;50.152;8.182;2023-03-04T13:34:03;97925.28;;;6.30;97.49
31771;BME280;18343;50.152;8.182;2023-03-04T13:36:54;97922.38;;;6.41;96.64
31771;BME280;18343;50.152;8.182;2023-03-04T13:39:39;97914.91;;;6.27;96.25
31771;BME280;18343;50.152;8.182;2023-03-04T13:42:41;97915.75;;;6.10;96.61
31771;BME280;18343;50.152;8.182;2023-03-04T13:45:33;97913.34;;;5.99;97.71
31771;BME280;18343;50.152;8.182;2023-03-04T13:48:30;97916.41;;;6.30;96.66
31771;BME280;18343;50.152;8.182;2023-03-04T13:51:18;97915.81;;;5.55;100.00
31771;BME280;18343;50.152;8.182;2023-03-04T13:54:13;97911.56;;;5.90;98.92
31771;BME280;18343;50.152;8.182;2023-03-04T13:57:16;97904.63;;;5.97;98.50
31771;BME280;18343;50.152;8.182;2023-03-04T14:00:03;97905.78;;;5.94;98.38
31771;BME280;18343;50.152;8.182;2023-03-04T14:02:49;97902.94;;;5.96;98.31
31771;BME280;18343;50.152;8.182;2023-03-04T14:05:35;97902.81;;;5.97;98.61
31771;BME280;18343;50.152;8.182;2023-03-04T14:08:24;97894.50;;;6.00;99.12
31771;BME280;18343;50.152;8.182;2023-03-04T14:11:13;97900.41;;;6.30;97.63
31771;BME280;18343;50.152;8.182;2023-03-04T14:14:03;97896.16;;;6.19;97.92
31771;BME280;18343;50.152;8.182;2023-03-04T14:16:51;97899.19;;;6.24;98.17
31771;BME280;18343;50.152;8.182;2023-03-04T14:19:45;97892.75;;;6.35;97.68
31771;BME280;18343;50.152;8.182;2023-03-04T14:22:38;97891.00;;;6.43;97.27
31771;BME280;18343;50.152;8.182;2023-03-04T14:25:26;97891.09;;;6.34;97.44
31771;BME280;18343;50.152;8.182;2023-03-04T14:28:20;97888.44;;;6.16;97.60
31771;BME280;18343;50.152;8.182;2023-03-04T14:31:04;97890.81;;;6.19;98.08
31771;BME280;18343;50.152;8.182;2023-03-04T14:33:52;97886.88;;;6.31;96.99
31771;BME280;18343;50.152;8.182;2023-03-04T14:36:38;97878.72;;;5.79;99.87
31771;BME280;18343;50.152;8.182;2023-03-04T14:39:31;97881.34;;;6.07;99.23
31771;BME280;18343;50.152;8.182;2023-03-04T14:42:17;97875.47;;;6.21;97.82
31771;BME280;18343;50.152;8.182;2023-03-04T14:45:04;97873.69;;;6.30;97.79
31771;BME280;18343;50.152;8.182;2023-03-04T14:47:54;97868.72;;;6.35;96.93
31771;BME280;18343;50.152;8.182;2023-03-04T14:50:47;97864.53;;;6.32;97.14
31771;BME280;18343;50.152;8.182;2023-03-04T14:53:32;97864.03;;;6.29;97.02
31771;BME280;18343;50.152;8.182;2023-03-04T14:56:27;97858.19;;;6.33;97.71
31771;BME280;18343;50.152;8.182;2023-03-04T14:59:12;97854.81;;;6.23;97.72
31771;BME280;18343;50.152;8.182;2023-03-04T15:02:18;97853.00;;;6.32;97.87
31771;BME280;18343;50.152;8.182;2023-03-04T15:05:14;97847.72;;;6.14;99.36
31771;BME280;18343;50.152;8.182;2023-03-04T15:08:03;97842.59;;;6.21;98.96
31771;BME280;18343;50.152;8.182;2023-03-04T15:10:55;97847.19;;;6.36;97.67